Time;durP1;ratioP1;P1;durP2;ratioP2;P2;SDS_P1;SDS_P2;PMS_P1;PMS_P2;Temp;Humidity;BMP_temperature;BMP_pressure;BME280_temperature;BME280_humidity;BME280_pressure;Samples;Min_cycle;Max_cycle;Signal;HPM_P1;HPM_P2
2022/04/13 00:00:28;;;;;;;3.05;2.75;;;;;;;-144.47;100.00;61586.06;6184021;23;20063;-77
2022/04/13 00:02:54;;;;;;;5.45;3.08;;;;;;;-144.47;100.00;61586.06;6184209;23;20001;-77
2022/04/13 00:05:20;;;;;;;5.38;2.72;;;;;;;-144.47;100.00;61586.06;6184447;23;20020;-77
2022/04/13 00:07:45;;;;;;;2.78;2.40;;;;;;;-144.47;100.00;61586.06;6183529;23;20005;-77
2022/04/13 00:10:11;;;;;;;5.85;2.45;;;;;;;-144.47;100.00;61586.06;6183380;23;20072;-77
2022/04/13 00:12:37;;;;;;;5.18;2.60;;;;;;;-144.47;100.00;61586.06;6183753;23;20019;-76
2022/04/13 00:15:05;;;;;;;6.07;2.90;;;;;;;-144.47;100.00;61586.06;6183254;23;20040;-77
2022/04/13 00:17:31;;;;;;;3.53;3.22;;;;;;;-144.47;100.00;61586.06;6184085;23;20092;-77
2022/04/13 00:19:57;;;;;;;6.07;3.47;;;;;;;-144.47;100.00;61586.06;6183363;23;20051;-76
2022/04/13 00:22:23;;;;;;;5.90;3.28;;;;;;;-144.47;100.00;61586.06;6157452;23;20001;-77
2022/04/13 00:24:48;;;;;;;3.95;2.95;;;;;;;-144.47;100.00;61586.06;6182793;23;20035;-76
2022/04/13 00:27:14;;;;;;;3.25;3.00;;;;;;;-144.47;100.00;61586.06;6184474;23;20009;-76
2022/04/13 00:29:40;;;;;;;5.35;3.10;;;;;;;-144.47;100.00;61586.06;6195012;23;20013;-76
2022/04/13 00:32:06;;;;;;;5.57;3.22;;;;;;;-144.47;100.00;61586.06;6195153;23;20019;-77
2022/04/13 00:34:32;;;;;;;7.30;3.70;;;;;;;-144.47;100.00;61586.06;6185600;23;20005;-77
2022/04/13 00:36:58;;;;;;;6.22;3.53;;;;;;;-144.47;100.00;61586.06;6184385;23;20032;-77
2022/04/13 00:39:25;;;;;;;5.15;3.80;;;;;;;-144.47;100.00;61586.06;6183899;23;20063;-76
2022/04/13 00:42:02;;;;;;;6.25;3.35;;;;;;;-144.47;100.00;61586.06;6184023;23;20023;-77
2022/04/13 00:44:28;;;;;;;4.22;3.35;;;;;;;-144.47;100.00;61586.06;6183386;23;20020;-76
2022/04/13 00:46:54;;;;;;;5.20;3.20;;;;;;;-144.47;100.00;61586.06;6182178;23;20473;-77
2022/04/13 00:49:20;;;;;;;4.72;3.28;;;;;;;-144.47;100.00;61586.06;6183236;23;20027;-76
2022/04/13 00:51:45;;;;;;;4.60;3.58;;;;;;;-144.47;100.00;61586.06;6183679;23;20032;-76
2022/04/13 00:54:13;;;;;;;5.13;2.97;;;;;;;-144.47;100.00;61586.06;6183428;23;20013;-76
2022/04/13 00:56:41;;;;;;;5.30;3.08;;;;;;;-144.47;100.00;61586.06;6183495;23;20029;-76
2022/04/13 00:59:10;;;;;;;5.60;4.10;;;;;;;-144.47;100.00;61586.06;6179339;23;20017;-76
2022/04/13 01:01:42;;;;;;;7.63;4.38;;;;;;;-144.47;100.00;61586.06;6180114;23;20442;-76
2022/04/13 01:04:11;;;;;;;5.50;3.45;;;;;;;-144.47;100.00;61586.06;6181035;23;20080;-76
2022/04/13 01:06:38;;;;;;;5.18;3.33;;;;;;;-144.47;100.00;61586.06;6183752;23;20445;-77
2022/04/13 01:09:04;;;;;;;9.13;4.32;;;;;;;-144.47;100.00;61586.06;6183729;23;20056;-76
2022/04/13 01:11:30;;;;;;;5.35;3.65;;;;;;;-144.47;100.00;61586.06;6157382;23;20024;-76
2022/04/13 01:13:56;;;;;;;8.07;3.95;;;;;;;-144.47;100.00;61586.06;6183496;23;20013;-76
2022/04/13 01:16:23;;;;;;;6.03;3.47;;;;;;;-144.47;100.00;61586.06;6157402;23;20468;-76
2022/04/13 01:18:49;;;;;;;4.72;3.33;;;;;;;-144.47;100.00;61586.06;6157170;23;20457;-75
2022/04/13 01:21:17;;;;;;;3.70;3.22;;;;;;;-144.47;100.00;61586.06;6156723;23;20044;-76
2022/04/13 01:23:42;;;;;;;4.55;3.20;;;;;;;-144.47;100.00;61586.06;6183820;23;20019;-76
2022/04/13 01:26:10;;;;;;;4.45;3.60;;;;;;;-144.47;100.00;61586.06;6183394;23;20441;-76
2022/04/13 01:28:36;;;;;;;4.15;3.75;;;;;;;-144.47;100.00;61586.06;6157328;23;20016;-76
2022/04/13 01:31:01;;;;;;;5.75;3.90;;;;;;;-144.47;100.00;61586.06;6183034;23;20005;-76
2022/04/13 01:33:31;;;;;;;4.90;3.20;;;;;;;-144.47;100.00;61586.06;6182888;23;20013;-76
2022/04/13 01:36:02;;;;;;;4.45;3.63;;;;;;;-144.47;100.00;61586.06;6182522;23;20012;-76
2022/04/13 01:38:31;;;;;;;6.05;4.15;;;;;;;-144.47;100.00;61586.06;6182848;23;20005;-75
2022/04/13 01:40:57;;;;;;;8.85;4.63;;;;;;;-144.47;100.00;61586.06;6182536;23;20342;-75
2022/04/13 01:43:23;;;;;;;6.43;4.15;;;;;;;-144.47;100.00;61586.06;6156290;23;20081;-75
2022/04/13 01:45:50;;;;;;;6.50;3.95;;;;;;;-144.47;100.00;61586.06;6156549;23;20017;-74
2022/04/13 01:48:18;;;;;;;5.93;3.78;;;;;;;-144.47;100.00;61586.06;6181378;23;20438;-76
2022/04/13 01:50:43;;;;;;;6.22;3.72;;;;;;;-144.47;100.00;61586.06;6183063;23;20407;-77
2022/04/13 01:53:10;;;;;;;5.50;3.58;;;;;;;-144.47;100.00;61586.06;6156520;23;20012;-77
2022/04/13 01:55:36;;;;;;;7.80;3.42;;;;;;;-144.47;100.00;61586.06;6182933;23;20289;-75
2022/04/13 01:58:01;;;;;;;8.68;4.05;;;;;;;-144.47;100.00;61586.06;6182440;23;20009;-75
2022/04/13 02:00:27;;;;;;;4.95;3.45;;;;;;;-144.47;100.00;61586.06;6183146;23;20011;-76
2022/04/13 02:02:53;;;;;;;4.18;3.17;;;;;;;-144.47;100.00;61586.06;6182109;23;20096;-76
2022/04/13 02:05:19;;;;;;;5.85;3.58;;;;;;;-144.47;100.00;61586.06;6182452;23;20009;-75
2022/04/13 02:07:44;;;;;;;5.85;3.38;;;;;;;-144.47;100.00;61586.06;6156283;23;20020;-76
2022/04/13 02:10:10;;;;;;;3.75;3.35;;;;;;;-144.47;100.00;61586.06;6182683;23;20016;-77
2022/04/13 02:12:37;;;;;;;4.88;3.22;;;;;;;-144.47;100.00;61586.06;6183449;23;20456;-76
2022/04/13 02:15:04;;;;;;;3.72;3.28;;;;;;;-144.47;100.00;61586.06;6182938;23;20378;-77
2022/04/13 02:17:30;;;;;;;4.80;3.30;;;;;;;-144.47;100.00;61586.06;6182702;23;20036;-77
2022/04/13 02:19:55;;;;;;;7.60;4.05;;;;;;;-144.47;100.00;61586.06;6182336;23;20434;-77
2022/04/13 02:22:20;;;;;;;6.07;3.63;;;;;;;-144.47;100.00;61586.06;6182895;23;20016;-75
2022/04/13 02:24:46;;;;;;;5.55;3.70;;;;;;;-144.47;100.00;61586.06;6156773;23;20136;-75
2022/04/13 02:27:12;;;;;;;4.78;3.70;;;;;;;-144.47;100.00;61586.06;6131525;23;20018;-75
2022/04/13 02:29:39;;;;;;;7.07;3.88;;;;;;;-144.47;100.00;61586.06;6184655;23;20033;-75
2022/04/13 02:32:06;;;;;;;6.38;3.65;;;;;;;-144.47;100.00;61586.06;6183831;23;20446;-77
2022/04/13 02:34:32;;;;;;;4.75;3.50;;;;;;;-144.47;100.00;61586.06;6182826;23;20036;-76
2022/04/13 02:36:57;;;;;;;6.88;3.58;;;;;;;-144.47;100.00;61586.06;6183235;23;20013;-77
2022/04/13 02:39:23;;;;;;;4.32;3.60;;;;;;;-144.47;100.00;61586.06;6184250;23;20012;-75
2022/04/13 02:41:48;;;;;;;6.70;3.42;;;;;;;-144.47;100.00;61586.06;6183330;23;20017;-76
2022/04/13 02:44:14;;;;;;;7.47;3.80;;;;;;;-144.47;100.00;61586.06;6181629;23;20009;-75
2022/04/13 02:46:41;;;;;;;5.47;3.55;;;;;;;-144.47;100.00;61586.06;6182256;23;20009;-77
2022/04/13 02:49:07;;;;;;;4.55;4.13;;;;;;;-144.47;100.00;61586.06;6181856;23;20434;-75
2022/04/13 02:51:32;;;;;;;3.97;3.53;;;;;;;-144.47;100.00;61586.06;6182087;23;20063;-76
2022/04/13 02:53:57;;;;;;;7.63;3.90;;;;;;;-144.47;100.00;61586.06;6181881;23;20518;-77
2022/04/13 02:56:23;;;;;;;5.18;3.78;;;;;;;-144.47;100.00;61586.06;6182299;23;20079;-77
2022/04/13 02:58:48;;;;;;;6.97;4.03;;;;;;;-144.47;100.00;61586.06;6182215;23;20063;-77
2022/04/13 03:01:14;;;;;;;7.13;3.72;;;;;;;-144.47;100.00;61586.06;6182244;23;20031;-75
2022/04/13 03:03:39;;;;;;;5.82;4.10;;;;;;;-144.47;100.00;61586.06;6181957;23;20103;-76
2022/04/13 03:06:05;;;;;;;10.13;4.30;;;;;;;-144.47;100.00;61586.06;6181504;23;20016;-76
2022/04/13 03:08:30;;;;;;;9.75;3.97;;;;;;;-144.47;100.00;61586.06;6182317;23;20020;-77
2022/04/13 03:10:56;;;;;;;7.00;4.15;;;;;;;-144.47;100.00;61586.06;6182057;23;20064;-75
2022/04/13 03:13:22;;;;;;;6.80;4.15;;;;;;;-144.47;100.00;61586.06;6182077;23;20016;-75
2022/04/13 03:15:47;;;;;;;6.40;4.28;;;;;;;-144.47;100.00;61586.06;6182244;23;20009;-76
2022/04/13 03:18:13;;;;;;;6.18;4.10;;;;;;;-144.47;100.00;61586.06;6181757;23;20017;-76
2022/04/13 03:20:38;;;;;;;6.72;4.30;;;;;;;-144.47;100.00;61586.06;6182105;23;20005;-78
2022/04/13 03:23:04;;;;;;;6.05;3.83;;;;;;;-144.47;100.00;61586.06;6182100;23;20036;-76
2022/04/13 03:25:30;;;;;;;5.53;4.53;;;;;;;-144.47;100.00;61586.06;6183464;23;20012;-76
2022/04/13 03:27:55;;;;;;;5.85;3.63;;;;;;;-144.47;100.00;61586.06;6182081;23;20100;-75
2022/04/13 03:30:22;;;;;;;7.63;3.75;;;;;;;-144.47;100.00;61586.06;6182157;23;20032;-76
2022/04/13 03:32:50;;;;;;;5.72;3.75;;;;;;;-144.47;100.00;61586.06;6131305;23;20044;-75
2022/04/13 03:35:15;;;;;;;5.60;3.80;;;;;;;-144.47;100.00;61586.06;6181873;23;20088;-74
2022/04/13 03:37:41;;;;;;;4.45;3.47;;;;;;;-144.47;100.00;61586.06;6181599;23;20085;-75
2022/04/13 03:40:08;;;;;;;5.55;3.88;;;;;;;-144.47;100.00;61586.06;6181604;23;20747;-75
2022/04/13 03:42:38;;;;;;;7.20;4.03;;;;;;;-144.47;100.00;61586.06;6182300;23;20115;-76
2022/04/13 03:45:04;;;;;;;6.88;3.97;;;;;;;-144.47;100.00;61586.06;6181830;23;20017;-75
2022/04/13 03:47:30;;;;;;;5.45;3.42;;;;;;;-144.47;100.00;61586.06;6181923;23;20013;-75
2022/04/13 03:49:56;;;;;;;5.82;3.90;;;;;;;-144.47;100.00;61586.06;6181486;23;20099;-76
2022/04/13 03:52:22;;;;;;;4.13;3.28;;;;;;;-144.47;100.00;61586.06;6182081;23;20151;-77
2022/04/13 03:54:47;;;;;;;5.57;3.47;;;;;;;-144.47;100.00;61586.06;6131065;23;20031;-76
2022/04/13 03:57:13;;;;;;;5.50;3.42;;;;;;;-144.47;100.00;61586.06;6185600;23;20017;-76
2022/04/13 03:59:38;;;;;;;4.88;3.83;;;;;;;-144.47;100.00;61586.06;6197213;23;20441;-77
2022/04/13 04:02:04;;;;;;;5.50;3.35;;;;;;;-144.47;100.00;61586.06;6187752;23;20311;-76
2022/04/13 04:04:29;;;;;;;4.32;3.55;;;;;;;-144.47;100.00;61586.06;6182679;23;20402;-77
2022/04/13 04:06:55;;;;;;;6.32;3.72;;;;;;;-144.47;100.00;61586.06;6182767;23;20020;-76
2022/04/13 04:09:20;;;;;;;4.45;3.53;;;;;;;-144.47;100.00;61586.06;6155352;23;20009;-75
2022/04/13 04:11:46;;;;;;;4.28;3.67;;;;;;;-144.47;100.00;61586.06;6155621;23;20013;-76
2022/04/13 04:14:11;;;;;;;6.18;3.75;;;;;;;-144.47;100.00;61586.06;6155288;23;20016;-76
2022/04/13 04:16:37;;;;;;;3.72;3.30;;;;;;;-144.47;100.00;61586.06;6182632;23;20010;-76
2022/04/13 04:19:02;;;;;;;3.95;3.22;;;;;;;-144.47;100.00;61586.06;6181548;23;20020;-76
2022/04/13 04:21:28;;;;;;;4.68;3.50;;;;;;;-144.47;100.00;61586.06;6182073;23;20434;-75
2022/04/13 04:23:53;;;;;;;5.00;3.33;;;;;;;-144.47;100.00;61586.06;6181427;23;20036;-76
2022/04/13 04:26:18;;;;;;;8.80;3.45;;;;;;;-144.47;100.00;61586.06;6155126;23;20013;-76
2022/04/13 04:28:44;;;;;;;10.45;3.70;;;;;;;-144.47;100.00;61586.06;6155303;23;20097;-75
2022/04/13 04:31:09;;;;;;;3.92;3.25;;;;;;;-144.47;100.00;61586.06;6181649;23;20013;-76
2022/04/13 04:33:35;;;;;;;4.22;3.30;;;;;;;-144.47;100.00;61586.06;6183517;23;20032;-75
2022/04/13 04:36:00;;;;;;;5.68;3.58;;;;;;;-144.47;100.00;61586.06;6156856;23;20084;-76
2022/04/13 04:38:32;;;;;;;4.88;3.88;;;;;;;-144.47;100.00;61586.06;6183266;23;20017;-76
2022/04/13 04:40:58;;;;;;;4.93;3.60;;;;;;;-144.47;100.00;61586.06;6182870;23;20016;-77
2022/04/13 04:43:23;;;;;;;6.05;3.80;;;;;;;-144.47;100.00;61586.06;6183603;23;20013;-76
2022/04/13 04:45:49;;;;;;;5.30;3.83;;;;;;;-144.47;100.00;61586.06;6183465;23;20020;-77
2022/04/13 04:48:14;;;;;;;6.50;3.40;;;;;;;-144.47;100.00;61586.06;6182318;23;20756;-76
2022/04/13 04:50:40;;;;;;;6.47;3.47;;;;;;;-144.47;100.00;61586.06;6183321;23;20307;-75
2022/04/13 04:53:05;;;;;;;6.53;3.72;;;;;;;-144.47;100.00;61586.06;6182891;23;20091;-76
2022/04/13 04:55:31;;;;;;;4.88;3.85;;;;;;;-144.47;100.00;61586.06;6182890;23;20405;-78
2022/04/13 04:57:57;;;;;;;4.78;3.35;;;;;;;-144.47;100.00;61586.06;6182848;23;20016;-76
2022/04/13 05:00:22;;;;;;;7.55;4.30;;;;;;;-144.47;100.00;61586.06;6183023;23;20311;-76
2022/04/13 05:02:52;;;;;;;7.15;3.50;;;;;;;-144.47;100.00;61586.06;6182849;23;20001;-76
2022/04/13 05:05:19;;;;;;;5.07;3.80;;;;;;;-144.47;100.00;61586.06;6156922;23;20012;-78
2022/04/13 05:07:45;;;;;;;5.47;4.13;;;;;;;-144.47;100.00;61586.06;6184036;23;20009;-80
2022/04/13 05:10:11;;;;;;;9.38;3.65;;;;;;;-144.47;100.00;61586.06;6183228;23;20020;-80
2022/04/13 05:12:53;;;;;;;5.63;3.58;;;;;;;-144.47;100.00;61586.06;6183305;23;20342;-82
2022/04/13 05:15:19;;;;;;;4.85;3.50;;;;;;;-144.47;100.00;61586.06;6184873;23;20009;-81
2022/04/13 05:17:44;;;;;;;7.63;4.47;;;;;;;-144.47;100.00;61586.06;6182949;23;20013;-82
2022/04/13 05:20:10;;;;;;;4.85;3.00;;;;;;;-144.47;100.00;61586.06;6183410;23;20005;-81
2022/04/13 05:22:36;;;;;;;10.13;3.72;;;;;;;-144.47;100.00;61586.06;6184083;23;20033;-84
2022/04/13 05:25:05;;;;;;;8.20;3.45;;;;;;;-144.47;100.00;61586.06;6157627;23;20001;-82
2022/04/13 05:27:31;;;;;;;8.20;3.78;;;;;;;-144.47;100.00;61586.06;6186469;23;20093;-85
2022/04/13 05:29:57;;;;;;;11.13;3.85;;;;;;;-144.47;100.00;61586.06;6160469;23;20064;-85
2022/04/13 05:32:22;;;;;;;6.45;3.67;;;;;;;-144.47;100.00;61586.06;6185002;23;20021;-81
2022/04/13 05:34:48;;;;;;;6.75;3.90;;;;;;;-144.47;100.00;61586.06;6183663;23;20478;-85
2022/04/13 05:37:13;;;;;;;8.27;4.15;;;;;;;-144.47;100.00;61586.06;6186574;23;20013;-87
2022/04/13 05:39:39;;;;;;;8.98;4.25;;;;;;;-144.47;100.00;61586.06;6193702;23;20012;-85
2022/04/13 05:42:05;;;;;;;4.88;3.47;;;;;;;-144.47;100.00;61586.06;6195305;23;20005;-83
2022/04/13 05:44:31;;;;;;;5.63;3.28;;;;;;;-144.47;100.00;61586.06;6199897;23;20005;-83
2022/04/13 05:46:57;;;;;;;6.50;3.55;;;;;;;-144.47;100.00;61586.06;6199478;23;20115;-85
2022/04/13 05:49:23;;;;;;;5.63;3.40;;;;;;;-144.47;100.00;61586.06;6164740;23;20091;-79
2022/04/13 05:51:49;;;;;;;4.82;3.92;;;;;;;-144.47;100.00;61586.06;6186849;23;20371;-81
2022/04/13 05:54:16;;;;;;;7.10;4.20;;;;;;;-144.47;100.00;61586.06;6185559;23;20012;-81
2022/04/13 05:56:41;;;;;;;8.80;4.10;;;;;;;-144.47;100.00;61586.06;6184165;23;20009;-81
2022/04/13 05:59:07;;;;;;;8.05;4.05;;;;;;;-144.47;100.00;61586.06;6158710;23;20016;-82
2022/04/13 06:01:32;;;;;;;6.93;4.65;;;;;;;-144.47;100.00;61586.06;6184585;23;20055;-83
2022/04/13 06:03:58;;;;;;;6.43;3.90;;;;;;;-144.47;100.00;61586.06;6181069;23;20068;-78
2022/04/13 06:06:25;;;;;;;6.75;4.50;;;;;;;-144.47;100.00;61586.06;6181939;23;20017;-85
2022/04/13 06:08:51;;;;;;;4.15;3.30;;;;;;;-144.47;100.00;61586.06;6181529;23;20021;-85
2022/04/13 06:11:16;;;;;;;6.68;3.55;;;;;;;-144.47;100.00;61586.06;6183649;23;20052;-85
2022/04/13 06:13:42;;;;;;;5.25;3.55;;;;;;;-144.47;100.00;61586.06;6184809;23;20013;-86
2022/04/13 06:16:08;;;;;;;6.03;3.42;;;;;;;-144.47;100.00;61586.06;6157066;23;20020;-84
2022/04/13 06:18:33;;;;;;;6.10;3.45;;;;;;;-144.47;100.00;61586.06;6183868;23;20017;-86
2022/04/13 06:20:59;;;;;;;5.68;3.90;;;;;;;-144.47;100.00;61586.06;6157858;23;20016;-85
2022/04/13 06:23:24;;;;;;;6.30;4.18;;;;;;;-144.47;100.00;61586.06;6184299;23;20009;-85
2022/04/13 06:25:50;;;;;;;4.63;3.70;;;;;;;-144.47;100.00;61586.06;6184743;23;20099;-86
2022/04/13 06:28:15;;;;;;;4.78;3.97;;;;;;;-144.47;100.00;61586.06;6183100;23;20008;-86
2022/04/13 06:30:41;;;;;;;5.97;3.53;;;;;;;-144.47;100.00;61586.06;6184029;23;20374;-87
2022/04/13 06:33:06;;;;;;;7.05;3.85;;;;;;;-144.47;100.00;61586.06;6157428;23;20005;-85
2022/04/13 06:35:32;;;;;;;8.38;4.20;;;;;;;-144.47;100.00;61586.06;6183972;23;20094;-86
2022/04/13 06:37:57;;;;;;;8.07;4.63;;;;;;;-144.47;100.00;61586.06;6183851;23;20021;-86
2022/04/13 06:40:23;;;;;;;5.13;4.32;;;;;;;-144.47;100.00;61586.06;6184161;23;20442;-85
2022/04/13 06:42:48;;;;;;;6.13;3.92;;;;;;;-144.47;100.00;61586.06;6184120;23;20015;-85
2022/04/13 06:45:15;;;;;;;5.20;4.25;;;;;;;-144.47;100.00;61586.06;6186742;23;20011;-85
2022/04/13 06:47:40;;;;;;;6.95;4.10;;;;;;;-144.47;100.00;61586.06;6187268;23;20107;-86
2022/04/13 06:50:07;;;;;;;4.95;4.03;;;;;;;-144.47;100.00;61586.06;6157150;23;20375;-86
2022/04/13 06:52:34;;;;;;;7.75;3.80;;;;;;;-144.47;100.00;61586.06;6192840;23;20008;-85
2022/04/13 06:55:00;;;;;;;9.40;4.82;;;;;;;-144.47;100.00;61586.06;6205641;23;20012;-84
2022/04/13 06:57:26;;;;;;;5.47;4.50;;;;;;;-144.47;100.00;61586.06;6207315;23;19997;-86
2022/04/13 06:59:51;;;;;;;7.75;4.68;;;;;;;-144.47;100.00;61586.06;6206644;23;20077;-86
2022/04/13 07:02:17;;;;;;;6.93;4.15;;;;;;;-144.47;100.00;61586.06;6178419;23;20005;-85
2022/04/13 07:04:42;;;;;;;5.57;3.92;;;;;;;-144.47;100.00;61586.06;6199344;23;20005;-84
2022/04/13 07:07:08;;;;;;;7.85;4.30;;;;;;;-144.47;100.00;61586.06;6198190;23;20001;-84
2022/04/13 07:09:34;;;;;;;8.82;4.60;;;;;;;-144.47;100.00;61586.06;6188485;23;20099;-86
2022/04/13 07:11:59;;;;;;;8.85;4.28;;;;;;;-144.47;100.00;61586.06;6184244;23;20013;-84
2022/04/13 07:14:25;;;;;;;8.27;4.68;;;;;;;-144.47;100.00;61586.06;6184624;23;20312;-85
2022/04/13 07:16:51;;;;;;;6.38;4.03;;;;;;;-144.47;100.00;61586.06;6185116;23;19997;-85
2022/04/13 07:19:16;;;;;;;7.13;4.28;;;;;;;-144.47;100.00;61586.06;6183921;23;20087;-86
2022/04/13 07:21:42;;;;;;;6.15;4.20;;;;;;;-144.47;100.00;61586.06;6183837;23;20104;-87
2022/04/13 07:24:07;;;;;;;8.57;4.00;;;;;;;-144.47;100.00;61586.06;6157829;23;20039;-84
2022/04/13 07:26:33;;;;;;;7.70;5.03;;;;;;;-144.47;100.00;61586.06;6184602;23;20009;-85
2022/04/13 07:28:59;;;;;;;8.88;4.55;;;;;;;-144.47;100.00;61586.06;6184415;23;20021;-85
2022/04/13 07:31:24;;;;;;;10.07;4.45;;;;;;;-144.47;100.00;61586.06;6172021;23;20016;-86
2022/04/13 07:33:50;;;;;;;9.18;4.15;;;;;;;-144.47;100.00;61586.06;6210198;23;20015;-87
2022/04/13 07:36:15;;;;;;;8.07;5.13;;;;;;;-144.47;100.00;61586.06;6180671;23;20013;-86
2022/04/13 07:38:41;;;;;;;7.43;4.68;;;;;;;-144.47;100.00;61586.06;6184089;23;20008;-84
2022/04/13 07:41:06;;;;;;;8.40;4.78;;;;;;;-144.47;100.00;61586.06;6191031;23;20037;-86
2022/04/13 07:43:32;;;;;;;7.32;4.72;;;;;;;-144.47;100.00;61586.06;6186369;23;20151;-83
2022/04/13 07:45:57;;;;;;;10.07;4.57;;;;;;;-144.47;100.00;61586.06;6184978;23;20104;-84
2022/04/13 07:48:23;;;;;;;5.28;4.63;;;;;;;-144.47;100.00;61586.06;6184906;23;20020;-83
2022/04/13 07:50:48;;;;;;;7.78;4.70;;;;;;;-144.47;100.00;61586.06;6184273;23;20065;-82
2022/04/13 07:53:14;;;;;;;7.25;4.93;;;;;;;-144.47;100.00;61586.06;6184595;23;20013;-84
2022/04/13 07:55:40;;;;;;;6.80;4.43;;;;;;;-144.47;100.00;61586.06;6181412;23;20425;-82
2022/04/13 07:58:06;;;;;;;7.35;4.55;;;;;;;-144.47;100.00;61586.06;6182271;23;20040;-80
2022/04/13 08:00:32;;;;;;;9.95;4.45;;;;;;;-144.47;100.00;61586.06;6182573;23;20311;-85
2022/04/13 08:02:58;;;;;;;5.45;4.05;;;;;;;-144.47;100.00;61586.06;6185742;23;20092;-83
2022/04/13 08:05:23;;;;;;;6.80;4.40;;;;;;;-144.47;100.00;61586.06;6189659;23;20043;-83
2022/04/13 08:07:49;;;;;;;5.93;4.43;;;;;;;-144.47;100.00;61586.06;6206810;23;20278;-84
2022/04/13 08:10:14;;;;;;;5.95;4.60;;;;;;;-144.47;100.00;61586.06;6203827;23;20032;-87
2022/04/13 08:12:41;;;;;;;9.30;5.07;;;;;;;-144.47;100.00;61586.06;6164329;23;20100;-86
2022/04/13 08:15:07;;;;;;;6.22;4.75;;;;;;;-144.47;100.00;61586.06;6157386;23;20013;-85
2022/04/13 08:17:33;;;;;;;6.60;4.70;;;;;;;-144.47;100.00;61586.06;6185295;23;20077;-84
2022/04/13 08:20:00;;;;;;;8.68;5.60;;;;;;;-144.47;100.00;61586.06;6157803;23;20033;-84
2022/04/13 08:22:26;;;;;;;7.05;4.72;;;;;;;-144.47;100.00;61586.06;6183839;23;20013;-83
2022/04/13 08:24:53;;;;;;;8.32;5.53;;;;;;;-144.47;100.00;61586.06;6132670;23;20060;-83
2022/04/13 08:27:19;;;;;;;8.18;5.57;;;;;;;-144.47;100.00;61586.06;6183188;23;20422;-82
2022/04/13 08:29:46;;;;;;;7.32;5.55;;;;;;;-144.47;100.00;61586.06;6183728;23;20044;-82
2022/04/13 08:32:15;;;;;;;6.75;5.32;;;;;;;-144.47;100.00;61586.06;6184073;23;20382;-87
2022/04/13 08:34:40;;;;;;;7.55;6.10;;;;;;;-144.47;100.00;61586.06;6184057;23;20017;-83
2022/04/13 08:37:06;;;;;;;9.27;6.40;;;;;;;-144.47;100.00;61586.06;6183664;23;20490;-86
2022/04/13 08:39:31;;;;;;;10.70;6.75;;;;;;;-144.47;100.00;61586.06;6184466;23;20005;-86
2022/04/13 08:41:58;;;;;;;10.68;6.63;;;;;;;-144.47;100.00;61586.06;6184292;23;20005;-89
2022/04/13 08:44:58;;;;;;;16.08;7.70;;;;;;;-144.47;100.00;61586.06;6184352;23;20132;-86
2022/04/13 08:47:24;;;;;;;10.93;7.43;;;;;;;-144.47;100.00;61586.06;6156973;23;20013;-87
2022/04/13 08:49:52;;;;;;;11.20;7.78;;;;;;;-144.47;100.00;61586.06;6183865;23;20096;-80
2022/04/13 08:52:24;;;;;;;15.52;7.70;;;;;;;-144.47;100.00;61586.06;6183341;23;20012;-85
2022/04/13 08:55:11;;;;;;;9.50;7.28;;;;;;;-144.47;100.00;61586.06;6184058;23;20033;-85
2022/04/13 08:57:39;;;;;;;9.63;7.05;;;;;;;-144.47;100.00;61586.06;6159594;23;20013;-85
2022/04/13 09:00:14;;;;;;;12.50;7.40;;;;;;;-144.47;100.00;61586.06;6184235;23;20425;-83
2022/04/13 09:02:39;;;;;;;17.45;9.35;;;;;;;-144.47;100.00;61586.06;6185903;23;20375;-85
2022/04/13 09:05:12;;;;;;;14.52;7.78;;;;;;;-144.47;100.00;61586.06;6185076;23;20039;-83
2022/04/13 09:07:39;;;;;;;12.32;8.45;;;;;;;-144.47;100.00;61586.06;6187070;23;20075;-84
2022/04/13 09:15:34;;;;;;;15.13;8.07;;;;;;;-144.47;100.00;61586.06;6157323;23;20079;-87
2022/04/13 09:18:02;;;;;;;15.27;8.57;;;;;;;-144.47;100.00;61586.06;6184263;23;20017;-85
2022/04/13 09:23:07;;;;;;;13.73;8.52;;;;;;;-144.47;100.00;61586.06;6177763;23;20426;-78
2022/04/13 09:25:34;;;;;;;14.77;9.23;;;;;;;-144.47;100.00;61586.06;6181616;23;20335;-76
2022/04/13 09:28:01;;;;;;;14.55;9.00;;;;;;;-144.47;100.00;61586.06;6179964;23;20016;-78
2022/04/13 09:30:30;;;;;;;17.58;10.05;;;;;;;-144.47;100.00;61586.06;6180939;23;20013;-77
2022/04/13 09:32:56;;;;;;;14.02;9.43;;;;;;;-144.47;100.00;61586.06;6181833;23;20020;-75
2022/04/13 09:35:21;;;;;;;16.45;9.70;;;;;;;-144.47;100.00;61586.06;6156010;23;20457;-77
2022/04/13 09:37:47;;;;;;;15.75;9.88;;;;;;;-144.47;100.00;61586.06;6155055;23;20105;-77
2022/04/13 09:40:30;;;;;;;15.57;10.05;;;;;;;-144.47;100.00;61586.06;6155318;23;20009;-78
2022/04/13 09:43:10;;;;;;;18.45;10.45;;;;;;;-144.47;100.00;61586.06;6176859;23;20434;-76
2022/04/13 09:45:48;;;;;;;14.60;9.20;;;;;;;-144.47;100.00;61586.06;6152173;23;20013;-77
2022/04/13 09:48:16;;;;;;;15.88;9.40;;;;;;;-144.47;100.00;61586.06;6178176;23;20013;-76
2022/04/13 09:50:44;;;;;;;16.67;10.25;;;;;;;-144.47;100.00;61586.06;6152231;23;20093;-76
2022/04/13 09:53:11;;;;;;;19.58;10.15;;;;;;;-144.47;100.00;61586.06;6150708;23;20088;-75
2022/04/13 09:55:38;;;;;;;16.30;10.52;;;;;;;-144.47;100.00;61586.06;6178259;23;20020;-76
2022/04/13 09:58:12;;;;;;;18.05;10.63;;;;;;;-144.47;100.00;61586.06;6151917;23;20016;-76
2022/04/13 10:00:39;;;;;;;16.90;10.95;;;;;;;-144.47;100.00;61586.06;6178641;23;20017;-75
2022/04/13 10:03:14;;;;;;;19.13;11.43;;;;;;;-144.47;100.00;61586.06;6151614;23;20013;-75
2022/04/13 10:05:59;;;;;;;24.58;11.70;;;;;;;-144.47;100.00;61586.06;6151588;23;20017;-75
2022/04/13 10:08:27;;;;;;;17.17;10.68;;;;;;;-144.47;100.00;61586.06;6177270;23;20013;-76
2022/04/13 10:10:56;;;;;;;19.65;11.73;;;;;;;-144.47;100.00;61586.06;6152757;23;20009;-79
2022/04/13 10:13:33;;;;;;;19.88;11.13;;;;;;;-144.47;100.00;61586.06;6179089;23;20461;-77
2022/04/13 10:16:07;;;;;;;21.27;12.27;;;;;;;-144.47;100.00;61586.06;6154663;23;20020;-75
2022/04/13 10:18:53;;;;;;;18.83;11.98;;;;;;;-144.47;100.00;61586.06;6152474;23;20009;-77
2022/04/13 10:21:48;;;;;;;20.52;11.93;;;;;;;-144.47;100.00;61586.06;6187292;23;20012;-76
2022/04/13 10:24:37;;;;;;;19.23;12.48;;;;;;;-144.47;100.00;61586.06;6182799;23;20019;-75
2022/04/13 10:27:07;;;;;;;21.55;13.15;;;;;;;-144.47;100.00;61586.06;6183111;23;20087;-76
2022/04/13 10:29:35;;;;;;;21.40;13.50;;;;;;;-144.47;100.00;61586.06;6208876;23;20013;-75
2022/04/13 10:32:15;;;;;;;17.65;11.73;;;;;;;-144.47;100.00;61586.06;6208645;23;20031;-77
2022/04/13 10:34:42;;;;;;;18.00;11.43;;;;;;;-144.47;100.00;61586.06;6208529;23;20013;-76
2022/04/13 10:37:09;;;;;;;19.52;11.77;;;;;;;-144.47;100.00;61586.06;6208105;23;20013;-77
2022/04/13 10:39:36;;;;;;;19.83;12.45;;;;;;;-144.47;100.00;61586.06;6208970;23;20020;-77
2022/04/13 10:42:03;;;;;;;18.23;11.40;;;;;;;-144.47;100.00;61586.06;6181553;23;20004;-78
2022/04/13 10:44:36;;;;;;;21.88;11.63;;;;;;;-144.47;100.00;61586.06;6208910;23;20017;-76
2022/04/13 10:47:06;;;;;;;19.83;11.88;;;;;;;-144.47;100.00;61586.06;6181496;23;20075;-76
2022/04/13 10:49:48;;;;;;;26.13;13.38;;;;;;;-144.47;100.00;61586.06;6182245;23;20016;-76
2022/04/13 10:52:23;;;;;;;18.52;11.57;;;;;;;-144.47;100.00;61586.06;6208327;23;20016;-76
2022/04/13 10:55:00;;;;;;;22.90;12.75;;;;;;;-144.47;100.00;61586.06;6181966;23;20009;-75
2022/04/13 10:57:34;;;;;;;19.83;13.23;;;;;;;-144.47;100.00;61586.06;6208944;23;20013;-76
2022/04/13 11:00:03;;;;;;;20.77;12.02;;;;;;;-144.47;100.00;61586.06;6202948;23;20540;-75
2022/04/13 11:02:50;;;;;;;23.65;14.48;;;;;;;-144.47;100.00;61586.06;6181556;23;20462;-77
2022/04/13 11:05:18;;;;;;;17.77;10.85;;;;;;;-144.47;100.00;61586.06;6134407;23;20025;-76
2022/04/13 11:07:44;;;;;;;18.38;11.95;;;;;;;-144.47;100.00;61586.06;6211661;23;20009;-76
2022/04/13 11:10:16;;;;;;;18.60;12.13;;;;;;;-144.47;100.00;61586.06;6211285;23;20017;-77
2022/04/13 11:12:42;;;;;;;19.65;12.40;;;;;;;-144.47;100.00;61586.06;6211514;23;20027;-77
2022/04/13 11:15:08;;;;;;;20.17;12.45;;;;;;;-144.47;100.00;61586.06;6183202;23;20080;-75